sensor_id;sensor_type;location;lat;lon;timestamp;pressure;altitude;pressure_sealevel;temperature;humidity
59315;BME280;46521;50.160;20.802;2023-02-28T00:08:31;100981.38;;;-0.07;63.30
59315;BME280;46521;50.160;20.802;2023-02-28T00:18:33;100987.68;;;-0.13;62.80
59315;BME280;46521;50.160;20.802;2023-02-28T00:28:34;100981.20;;;-0.23;63.05
59315;BME280;46521;50.160;20.802;2023-02-28T00:38:36;100977.49;;;-0.38;63.45
59315;BME280;46521;50.160;20.802;2023-02-28T00:48:38;100970.08;;;-0.47;64.03
59315;BME280;46521;50.160;20.802;2023-02-28T00:58:40;100977.81;;;-0.46;63.96
59315;BME280;46521;50.160;20.802;2023-02-28T01:08:42;100981.53;;;-0.51;63.84
59315;BME280;46521;50.160;20.802;2023-02-28T01:18:43;100980.72;;;-0.74;64.13
59315;BME280;46521;50.160;20.802;2023-02-28T01:28:45;100984.49;;;-0.81;64.34
59315;BME280;46521;50.160;20.802;2023-02-28T01:38:47;100992.53;;;-0.87;64.68
59315;BME280;46521;50.160;20.802;2023-02-28T01:48:53;100990.64;;;-0.84;64.87
59315;BME280;46521;50.160;20.802;2023-02-28T01:58:56;100997.66;;;-0.86;64.82
59315;BME280;46521;50.160;20.802;2023-02-28T02:08:58;100998.50;;;-0.85;64.02
59315;BME280;46521;50.160;20.802;2023-02-28T02:49:51;100978.69;;;-1.10;63.93
59315;BME280;46521;50.160;20.802;2023-02-28T02:59:55;100977.08;;;-1.13;64.21
59315;BME280;46521;50.160;20.802;2023-02-28T03:09:58;100977.27;;;-1.17;64.74
59315;BME280;46521;50.160;20.802;2023-02-28T03:20:07;100973.86;;;-1.19;64.16
59315;BME280;46521;50.160;20.802;2023-02-28T03:30:18;100970.96;;;-1.34;65.04
59315;BME280;46521;50.160;20.802;2023-02-28T03:40:27;100990.28;;;-1.41;64.36
59315;BME280;46521;50.160;20.802;2023-02-28T03:50:36;101000.09;;;-1.49;65.29
59315;BME280;46521;50.160;20.802;2023-02-28T04:00:45;100996.83;;;-1.54;64.87
59315;BME280;46521;50.160;20.802;2023-02-28T04:21:15;101017.14;;;-1.66;65.32
59315;BME280;46521;50.160;20.802;2023-02-28T04:31:21;101028.52;;;-1.70;65.75
59315;BME280;46521;50.160;20.802;2023-02-28T04:41:23;101021.83;;;-1.75;64.83
59315;BME280;46521;50.160;20.802;2023-02-28T04:51:25;101039.17;;;-1.77;65.13
59315;BME280;46521;50.160;20.802;2023-02-28T05:01:31;101036.73;;;-1.82;64.63
59315;BME280;46521;50.160;20.802;2023-02-28T05:11:34;101050.27;;;-1.97;65.42
59315;BME280;46521;50.160;20.802;2023-02-28T05:21:39;101051.99;;;-1.98;65.48
59315;BME280;46521;50.160;20.802;2023-02-28T05:31:40;101053.70;;;-1.97;65.52
59315;BME280;46521;50.160;20.802;2023-02-28T05:41:42;101063.44;;;-2.04;65.91
59315;BME280;46521;50.160;20.802;2023-02-28T05:51:44;101080.88;;;-2.09;65.98
59315;BME280;46521;50.160;20.802;2023-02-28T06:01:45;101080.88;;;-2.09;66.33
59315;BME280;46521;50.160;20.802;2023-02-28T06:11:50;101092.91;;;-1.81;66.16
59315;BME280;46521;50.160;20.802;2023-02-28T06:21:52;101096.35;;;0.61;65.11
59315;BME280;46521;50.160;20.802;2023-02-28T06:31:54;101101.78;;;2.38;65.43
59315;BME280;46521;50.160;20.802;2023-02-28T06:41:56;101116.61;;;2.37;64.03
59315;BME280;46521;50.160;20.802;2023-02-28T06:51:58;101120.10;;;2.53;63.34
59315;BME280;46521;50.160;20.802;2023-02-28T07:01:59;101118.52;;;2.51;62.39
59315;BME280;46521;50.160;20.802;2023-02-28T07:12:01;101123.42;;;2.57;61.47
59315;BME280;46521;50.160;20.802;2023-02-28T07:22:02;101127.00;;;2.88;61.39
59315;BME280;46521;50.160;20.802;2023-02-28T07:32:04;101126.92;;;3.05;60.53
59315;BME280;46521;50.160;20.802;2023-02-28T07:42:06;101129.23;;;3.28;60.33
59315;BME280;46521;50.160;20.802;2023-02-28T07:52:11;101115.69;;;3.67;59.30
59315;BME280;46521;50.160;20.802;2023-02-28T08:02:15;101113.47;;;3.75;58.51
59315;BME280;46521;50.160;20.802;2023-02-28T08:12:16;101112.33;;;3.95;58.22
59315;BME280;46521;50.160;20.802;2023-02-28T08:22:18;101108.55;;;4.30;58.34
59315;BME280;46521;50.160;20.802;2023-02-28T08:32:19;101113.62;;;4.62;57.42
59315;BME280;46521;50.160;20.802;2023-02-28T08:42:22;101116.81;;;4.81;56.86
59315;BME280;46521;50.160;20.802;2023-02-28T08:52:24;101109.23;;;4.77;56.35
59315;BME280;46521;50.160;20.802;2023-02-28T09:02:25;101111.23;;;5.42;55.71
59315;BME280;46521;50.160;20.802;2023-02-28T09:12:27;101105.25;;;5.40;55.61
59315;BME280;46521;50.160;20.802;2023-02-28T09:22:33;101111.20;;;5.56;55.68
59315;BME280;46521;50.160;20.802;2023-02-28T09:32:35;101108.11;;;5.77;54.99
59315;BME280;46521;50.160;20.802;2023-02-28T09:42:36;101113.44;;;6.03;54.88
59315;BME280;46521;50.160;20.802;2023-02-28T09:52:38;101119.26;;;6.46;54.26
59315;BME280;46521;50.160;20.802;2023-02-28T10:12:53;101106.38;;;6.93;54.14
59315;BME280;46521;50.160;20.802;2023-02-28T10:23:01;101092.53;;;7.15;54.16
59315;BME280;46521;50.160;20.802;2023-02-28T10:33:49;101074.55;;;7.33;53.25
59315;BME280;46521;50.160;20.802;2023-02-28T10:43:44;101063.80;;;6.88;53.25
59315;BME280;46521;50.160;20.802;2023-02-28T10:53:54;101054.86;;;7.15;52.79
59315;BME280;46521;50.160;20.802;2023-02-28T11:03:56;101048.94;;;7.24;52.77
59315;BME280;46521;50.160;20.802;2023-02-28T11:14:04;101039.17;;;7.37;52.26
59315;BME280;46521;50.160;20.802;2023-02-28T11:24:27;101030.03;;;7.30;51.80
59315;BME280;46521;50.160;20.802;2023-02-28T11:34:30;101024.67;;;7.08;51.34
59315;BME280;46521;50.160;20.802;2023-02-28T11:44:56;101028.07;;;6.60;52.47
59315;BME280;46521;50.160;20.802;2023-02-28T11:55:11;101022.59;;;6.63;52.32
59315;BME280;46521;50.160;20.802;2023-02-28T12:36:13;101003.63;;;5.82;51.70
59315;BME280;46521;50.160;20.802;2023-02-28T12:46:30;101002.48;;;5.86;51.87
59315;BME280;46521;50.160;20.802;2023-02-28T13:17:33;100976.34;;;5.19;51.50
59315;BME280;46521;50.160;20.802;2023-02-28T13:27:39;100974.95;;;5.13;51.84
59315;BME280;46521;50.160;20.802;2023-02-28T13:37:44;100959.61;;;5.07;51.38
59315;BME280;46521;50.160;20.802;2023-02-28T13:48:25;100947.63;;;5.03;51.58
59315;BME280;46521;50.160;20.802;2023-02-28T13:59:00;100942.45;;;4.88;51.81
59315;BME280;46521;50.160;20.802;2023-02-28T14:09:26;100935.05;;;4.68;51.61
59315;BME280;46521;50.160;20.802;2023-02-28T14:19:31;100930.97;;;4.49;51.87
59315;BME280;46521;50.160;20.802;2023-02-28T14:30:14;100932.86;;;4.47;51.92
59315;BME280;46521;50.160;20.802;2023-02-28T14:40:35;100928.77;;;4.29;52.07
59315;BME280;46521;50.160;20.802;2023-02-28T14:50:39;100936.27;;;4.21;51.55
59315;BME280;46521;50.160;20.802;2023-02-28T15:00:49;100926.55;;;4.08;51.97
59315;BME280;46521;50.160;20.802;2023-02-28T15:11:07;100923.58;;;4.00;52.26
59315;BME280;46521;50.160;20.802;2023-02-28T15:21:38;100919.73;;;3.91;52.06
59315;BME280;46521;50.160;20.802;2023-02-28T15:31:44;100920.84;;;3.73;52.21
59315;BME280;46521;50.160;20.802;2023-02-28T15:41:46;100919.45;;;3.53;52.46
59315;BME280;46521;50.160;20.802;2023-02-28T15:51:50;100925.77;;;3.34;52.85
59315;BME280;46521;50.160;20.802;2023-02-28T16:12:03;100933.42;;;3.07;52.71
59315;BME280;46521;50.160;20.802;2023-02-28T16:22:08;100931.88;;;2.88;52.94
59315;BME280;46521;50.160;20.802;2023-02-28T16:32:13;100933.00;;;2.68;53.70
59315;BME280;46521;50.160;20.802;2023-02-28T16:42:25;100941.77;;;2.36;53.34
59315;BME280;46521;50.160;20.802;2023-02-28T16:52:28;100954.59;;;2.07;54.45
59315;BME280;46521;50.160;20.802;2023-02-28T17:02:29;100966.61;;;1.93;54.58
59315;BME280;46521;50.160;20.802;2023-02-28T17:12:31;100957.88;;;1.77;54.75
59315;BME280;46521;50.160;20.802;2023-02-28T17:22:32;100962.97;;;1.62;54.85
59315;BME280;46521;50.160;20.802;2023-02-28T17:32:34;100957.77;;;1.45;55.14
59315;BME280;46521;50.160;20.802;2023-02-28T17:42:35;100948.56;;;1.20;54.97
59315;BME280;46521;50.160;20.802;2023-02-28T17:52:37;100957.60;;;0.96;56.15
59315;BME280;46521;50.160;20.802;2023-02-28T18:02:39;100953.95;;;0.81;57.10
59315;BME280;46521;50.160;20.802;2023-02-28T18:12:40;100958.22;;;0.64;57.33
59315;BME280;46521;50.160;20.802;2023-02-28T18:22:42;100947.16;;;0.59;57.50
59315;BME280;46521;50.160;20.802;2023-02-28T18:32:44;100945.27;;;0.44;57.62
59315;BME280;46521;50.160;20.802;2023-02-28T18:42:45;100945.13;;;0.28;58.07
59315;BME280;46521;50.160;20.802;2023-02-28T18:52:47;100947.38;;;0.16;58.52
59315;BME280;46521;50.160;20.802;2023-02-28T19:02:48;100948.28;;;0.15;58.69
59315;BME280;46521;50.160;20.802;2023-02-28T19:12:50;100949.63;;;0.05;58.85
59315;BME280;46521;50.160;20.802;2023-02-28T19:22:52;100954.41;;;-0.05;58.84
59315;BME280;46521;50.160;20.802;2023-02-28T19:32:53;100946.54;;;-0.24;59.01
59315;BME280;46521;50.160;20.802;2023-02-28T19:42:55;100956.56;;;-0.35;59.09
59315;BME280;46521;50.160;20.802;2023-02-28T19:52:56;100951.89;;;-0.47;59.01
59315;BME280;46521;50.160;20.802;2023-02-28T20:02:58;100960.74;;;-0.51;59.81
59315;BME280;46521;50.160;20.802;2023-02-28T20:12:59;100961.52;;;-0.49;59.68
59315;BME280;46521;50.160;20.802;2023-02-28T20:23:01;100952.41;;;-0.60;60.08
59315;BME280;46521;50.160;20.802;2023-02-28T20:33:03;100950.99;;;-0.67;60.17
59315;BME280;46521;50.160;20.802;2023-02-28T20:43:04;100945.41;;;-0.78;60.37
59315;BME280;46521;50.160;20.802;2023-02-28T20:53:06;100945.09;;;-0.93;60.65
59315;BME280;46521;50.160;20.802;2023-02-28T21:03:07;100937.77;;;-1.03;61.06
59315;BME280;46521;50.160;20.802;2023-02-28T21:13:09;100937.27;;;-1.13;61.39
59315;BME280;46521;50.160;20.802;2023-02-28T21:23:10;100945.81;;;-1.32;61.67
59315;BME280;46521;50.160;20.802;2023-02-28T21:33:12;100949.19;;;-1.30;61.29
59315;BME280;46521;50.160;20.802;2023-02-28T21:43:13;100945.01;;;-1.34;61.87
59315;BME280;46521;50.160;20.802;2023-02-28T21:53:15;100935.44;;;-1.32;61.47
59315;BME280;46521;50.160;20.802;2023-02-28T22:03:16;100948.26;;;-1.29;61.64
59315;BME280;46521;50.160;20.802;2023-02-28T22:13:18;100957.92;;;-1.32;62.27
59315;BME280;46521;50.160;20.802;2023-02-28T22:23:19;100961.86;;;-1.22;62.36
59315;BME280;46521;50.160;20.802;2023-02-28T22:33:21;100969.48;;;-1.17;62.55
59315;BME280;46521;50.160;20.802;2023-02-28T22:43:23;100975.56;;;-1.18;62.79
59315;BME280;46521;50.160;20.802;2023-02-28T22:53:25;100984.48;;;-1.25;62.20
59315;BME280;46521;50.160;20.802;2023-02-28T23:03:26;100989.05;;;-1.54;63.25
59315;BME280;46521;50.160;20.802;2023-02-28T23:13:27;100996.55;;;-1.70;62.47
59315;BME280;46521;50.160;20.802;2023-02-28T23:23:29;100986.15;;;-2.18;63.14
59315;BME280;46521;50.160;20.802;2023-02-28T23:33:31;100978.89;;;-2.58;63.93
59315;BME280;46521;50.160;20.802;2023-02-28T23:43:33;100988.48;;;-2.62;64.03
